createdAt,value
2023-04-23T00:00:42.362Z,53.73
2023-04-23T00:03:10.780Z,53.68
2023-04-23T00:05:38.420Z,53.23
2023-04-23T00:08:07.261Z,52.76
2023-04-23T00:10:34.453Z,52.66
2023-04-23T00:13:02.018Z,52.68
2023-04-23T00:15:29.477Z,52.42
2023-04-23T00:17:57.851Z,52.35
2023-04-23T00:20:25.029Z,52.23
2023-04-23T00:22:52.134Z,52.24
2023-04-23T00:25:19.243Z,52.05
2023-04-23T00:27:48.059Z,52.23
2023-04-23T00:30:15.269Z,52.20
2023-04-23T00:32:42.993Z,51.95
2023-04-23T00:35:10.432Z,51.97
2023-04-23T00:37:38.949Z,52.21
2023-04-23T00:40:08.226Z,52.48
2023-04-23T00:42:36.511Z,52.42
2023-04-23T00:45:04.150Z,52.43
2023-04-23T00:47:33.893Z,52.67
2023-04-23T00:50:02.057Z,52.65
2023-04-23T00:52:29.591Z,52.75
2023-04-23T00:54:58.995Z,53.04
2023-04-23T00:57:27.061Z,52.97
2023-04-23T00:59:58.565Z,52.99
2023-04-23T01:02:29.035Z,52.92
2023-04-23T01:04:56.500Z,53.11
2023-04-23T01:07:24.173Z,53.35
2023-04-23T01:09:52.422Z,53.55
2023-04-23T01:12:19.974Z,53.63
2023-04-23T01:14:47.159Z,53.63
2023-04-23T01:17:14.808Z,53.40
2023-04-23T01:19:42.068Z,53.52
2023-04-23T01:22:14.506Z,53.66
2023-04-23T01:24:43.066Z,53.72
2023-04-23T01:27:11.910Z,53.39
2023-04-23T01:29:39.806Z,53.64
2023-04-23T01:32:08.719Z,53.45
2023-04-23T01:34:39.115Z,53.84
2023-04-23T01:37:07.573Z,53.83
2023-04-23T01:39:34.972Z,53.97
2023-04-23T01:42:04.266Z,53.83
2023-04-23T01:44:31.304Z,54.24
2023-04-23T01:46:59.377Z,54.08
2023-04-23T01:49:27.650Z,54.24
2023-04-23T01:51:57.877Z,54.34
2023-04-23T01:54:25.089Z,54.88
2023-04-23T01:56:55.023Z,54.90
2023-04-23T01:59:24.504Z,54.68
2023-04-23T02:01:51.891Z,54.91
2023-04-23T02:04:19.256Z,55.05
2023-04-23T02:06:49.554Z,55.36
2023-04-23T02:09:17.365Z,55.46
2023-04-23T02:11:44.368Z,55.42
2023-04-23T02:14:12.143Z,55.52
2023-04-23T02:16:39.745Z,55.62
2023-04-23T02:19:07.389Z,55.58
2023-04-23T02:21:35.587Z,55.64
2023-04-23T02:24:05.564Z,55.50
2023-04-23T02:26:34.127Z,55.60
2023-04-23T02:29:03.053Z,55.83
2023-04-23T02:31:30.106Z,55.74
2023-04-23T02:33:58.392Z,55.73
2023-04-23T02:36:25.415Z,55.74
2023-04-23T02:38:52.605Z,55.96
2023-04-23T02:41:20.288Z,56.00
2023-04-23T02:43:47.260Z,56.07
2023-04-23T02:46:14.266Z,56.26
2023-04-23T02:48:42.996Z,56.20
2023-04-23T02:51:12.803Z,56.41
2023-04-23T02:53:39.923Z,56.49
2023-04-23T02:56:08.122Z,56.46
2023-04-23T02:58:35.570Z,56.36
2023-04-23T03:01:04.294Z,56.58
2023-04-23T03:03:32.884Z,56.40
2023-04-23T03:06:03.251Z,56.44
2023-04-23T03:08:30.449Z,56.66
2023-04-23T03:10:58.878Z,56.56
2023-04-23T03:13:28.498Z,56.67
2023-04-23T03:15:56.372Z,56.81
2023-04-23T03:18:23.614Z,56.91
2023-04-23T03:20:53.342Z,57.06
2023-04-23T03:23:20.478Z,56.89
2023-04-23T03:25:48.351Z,57.13
2023-04-23T03:28:15.641Z,57.71
2023-04-23T03:30:43.220Z,57.74
2023-04-23T03:33:10.604Z,58.01
2023-04-23T03:35:37.968Z,58.21
2023-04-23T03:38:11.316Z,58.25
2023-04-23T03:40:38.531Z,58.45
2023-04-23T03:43:08.157Z,58.59
2023-04-23T03:46:07.370Z,58.53
2023-04-23T03:48:38.568Z,58.59
2023-04-23T03:51:10.567Z,58.94
2023-04-23T03:53:42.735Z,58.96
2023-04-23T03:56:29.135Z,58.83
2023-04-23T03:59:08.533Z,58.84
2023-04-23T04:01:36.609Z,59.22
2023-04-23T04:04:03.922Z,59.33
2023-04-23T04:06:33.433Z,59.58
2023-04-23T04:09:00.999Z,59.72
2023-04-23T04:11:28.975Z,59.92
2023-04-23T04:13:56.141Z,60.26
2023-04-23T04:16:23.101Z,60.44
2023-04-23T04:18:51.493Z,60.60
2023-04-23T04:21:19.334Z,60.94
2023-04-23T04:23:46.685Z,61.02
2023-04-23T04:26:14.280Z,61.22
2023-04-23T04:28:41.410Z,61.44
2023-04-23T04:31:09.638Z,61.37
2023-04-23T04:33:40.020Z,61.55
2023-04-23T04:36:09.754Z,61.33
2023-04-23T04:38:39.608Z,61.56
2023-04-23T04:41:08.080Z,61.70
2023-04-23T04:43:35.189Z,61.72
2023-04-23T04:46:02.251Z,61.99
2023-04-23T04:48:29.238Z,62.04
2023-04-23T04:50:56.696Z,62.20
2023-04-23T04:53:23.870Z,62.60
2023-04-23T04:55:50.908Z,62.71
2023-04-23T04:58:17.851Z,63.04
2023-04-23T05:00:45.168Z,63.13
2023-04-23T05:03:14.270Z,63.24
2023-04-23T05:05:41.647Z,62.97
2023-04-23T05:08:09.083Z,63.28
2023-04-23T05:10:36.689Z,63.83
2023-04-23T05:13:03.836Z,63.98
2023-04-23T05:15:33.446Z,64.03
2023-04-23T05:18:00.514Z,64.08
2023-04-23T05:20:27.490Z,64.52
2023-04-23T05:22:56.606Z,64.72
2023-04-23T05:25:23.572Z,64.65
2023-04-23T05:27:50.761Z,65.23
2023-04-23T05:30:19.001Z,65.44
2023-04-23T05:32:46.357Z,65.53
2023-04-23T05:35:14.434Z,65.39
2023-04-23T05:37:41.452Z,65.40
2023-04-23T05:40:09.745Z,65.29
2023-04-23T05:42:37.571Z,65.28
2023-04-23T05:45:08.023Z,66.04
2023-04-23T05:47:36.724Z,65.73
2023-04-23T05:50:03.806Z,65.86
2023-04-23T05:52:35.947Z,66.02
2023-04-23T05:55:03.507Z,66.17
2023-04-23T05:57:30.521Z,66.70
2023-04-23T05:59:57.503Z,66.67
2023-04-23T06:02:25.809Z,66.80
2023-04-23T06:04:54.781Z,66.61
2023-04-23T06:07:23.026Z,66.49
2023-04-23T06:09:51.044Z,66.53
2023-04-23T06:12:19.590Z,66.85
2023-04-23T06:14:46.615Z,67.46
2023-04-23T06:17:17.009Z,67.52
2023-04-23T06:19:45.561Z,68.00
2023-04-23T06:22:12.612Z,68.09
2023-04-23T06:24:40.826Z,67.85
2023-04-23T06:27:08.377Z,67.59
2023-04-23T06:29:43.145Z,68.30
2023-04-23T06:32:19.041Z,67.81
2023-04-23T06:34:59.999Z,67.99
2023-04-23T06:37:29.952Z,68.39
2023-04-23T06:39:57.365Z,68.05
2023-04-23T06:42:25.623Z,68.46
2023-04-23T06:45:28.194Z,68.24
2023-04-23T06:47:55.280Z,68.34
2023-04-23T06:50:22.348Z,68.20
2023-04-23T06:52:49.569Z,68.57
2023-04-23T06:55:16.588Z,68.53
2023-04-23T06:57:44.258Z,68.64
2023-04-23T07:00:12.122Z,68.54
2023-04-23T07:02:41.964Z,68.50
2023-04-23T07:05:10.722Z,68.54
2023-04-23T07:07:38.708Z,68.38
2023-04-23T07:10:06.351Z,68.33
2023-04-23T07:12:36.063Z,68.34
2023-04-23T07:15:04.206Z,68.48
2023-04-23T07:17:31.576Z,68.44
2023-04-23T07:19:58.622Z,68.02
2023-04-23T07:22:27.368Z,67.89
2023-04-23T07:24:56.103Z,67.83
2023-04-23T07:27:25.059Z,67.79
2023-04-23T07:29:52.230Z,67.85
2023-04-23T07:32:19.709Z,67.72
2023-04-23T07:34:48.002Z,67.71
2023-04-23T07:37:16.223Z,67.53
2023-04-23T07:39:44.255Z,67.16
2023-04-23T07:42:12.810Z,66.97
2023-04-23T07:44:39.853Z,66.93
2023-04-23T07:47:06.786Z,66.69
2023-04-23T07:49:34.233Z,66.44
2023-04-23T07:52:02.555Z,66.52
2023-04-23T07:54:29.660Z,66.43
2023-04-23T07:56:57.638Z,66.55
2023-04-23T07:59:24.870Z,66.47
2023-04-23T08:01:52.635Z,66.60
2023-04-23T08:04:19.792Z,66.49
2023-04-23T08:06:47.085Z,66.47
2023-04-23T08:09:14.222Z,65.96
2023-04-23T08:11:42.130Z,65.86
2023-04-23T08:14:09.211Z,65.97
2023-04-23T08:16:38.725Z,65.94
2023-04-23T08:19:06.637Z,65.92
2023-04-23T08:21:35.630Z,65.71
2023-04-23T08:24:03.559Z,65.69
2023-04-23T08:26:32.014Z,65.52
2023-04-23T08:29:01.049Z,65.21
2023-04-23T08:31:28.586Z,65.03
2023-04-23T08:33:57.772Z,64.56
2023-04-23T08:36:26.097Z,64.19
2023-04-23T08:38:53.066Z,63.99
2023-04-23T08:41:24.526Z,63.72
2023-04-23T08:43:52.924Z,63.36
2023-04-23T08:46:20.268Z,62.98
2023-04-23T08:48:49.564Z,62.93
2023-04-23T08:51:20.386Z,62.00
2023-04-23T08:53:53.156Z,61.58
2023-04-23T08:56:22.953Z,61.03
2023-04-23T08:58:51.081Z,60.44
2023-04-23T09:01:19.328Z,59.72
2023-04-23T09:03:48.223Z,58.75
2023-04-23T09:06:15.782Z,58.61
2023-04-23T09:08:45.866Z,58.48
2023-04-23T09:11:12.932Z,58.01
2023-04-23T09:13:41.943Z,58.28
2023-04-23T09:16:11.461Z,57.87
2023-04-23T09:18:39.057Z,57.58
2023-04-23T09:21:07.179Z,57.42
2023-04-23T09:23:34.973Z,57.10
2023-04-23T09:26:06.639Z,57.24
2023-04-23T09:28:37.655Z,58.59
2023-04-23T09:31:08.136Z,58.67
2023-04-23T09:33:36.727Z,59.28
2023-04-23T09:36:15.940Z,59.16
2023-04-23T09:38:43.660Z,59.11
2023-04-23T09:41:28.676Z,57.27
2023-04-23T09:43:56.668Z,57.73
2023-04-23T09:46:35.123Z,56.63
2023-04-23T09:49:10.685Z,57.13
2023-04-23T09:51:39.712Z,57.51
2023-04-23T09:54:16.857Z,55.78
2023-04-23T09:56:45.174Z,56.59
2023-04-23T09:59:46.895Z,55.15
2023-04-23T10:02:15.951Z,53.92
2023-04-23T10:04:43.400Z,53.84
2023-04-23T10:07:19.730Z,53.09
2023-04-23T10:09:47.921Z,52.94
2023-04-23T10:14:47.167Z,52.24
2023-04-23T10:17:14.229Z,51.24
2023-04-23T10:19:44.379Z,50.58
2023-04-23T10:22:19.571Z,51.21
2023-04-23T10:24:53.385Z,51.90
2023-04-23T10:27:33.294Z,51.63
2023-04-23T10:30:12.334Z,52.35
2023-04-23T10:32:40.272Z,52.18
2023-04-23T10:35:09.071Z,50.06
2023-04-23T10:37:37.349Z,50.22
2023-04-23T10:40:12.738Z,49.60
2023-04-23T10:42:44.870Z,48.47
2023-04-23T10:45:25.160Z,48.33
2023-04-23T10:47:57.431Z,47.46
2023-04-23T10:50:31.475Z,46.52
2023-04-23T10:52:59.033Z,46.25
2023-04-23T10:55:34.453Z,45.08
2023-04-23T10:58:08.345Z,45.95
2023-04-23T11:00:47.021Z,46.46
2023-04-23T11:03:32.779Z,47.38
2023-04-23T11:06:05.071Z,45.45
2023-04-23T11:08:33.024Z,45.02
2023-04-23T11:11:06.769Z,44.70
2023-04-23T11:13:34.411Z,44.94
2023-04-23T11:16:24.431Z,44.12
2023-04-23T11:19:03.951Z,44.02
2023-04-23T11:22:04.606Z,44.66
2023-04-23T11:24:42.953Z,45.40
2023-04-23T11:27:13.297Z,45.18
2023-04-23T11:29:42.349Z,43.97
2023-04-23T11:32:11.101Z,45.03
2023-04-23T11:34:47.287Z,44.95
2023-04-23T11:37:15.658Z,44.46
2023-04-23T11:39:44.691Z,43.54
2023-04-23T11:42:13.375Z,43.38
2023-04-23T11:44:46.447Z,42.94
2023-04-23T11:47:16.725Z,43.39
2023-04-23T11:49:45.832Z,43.62
2023-04-23T11:52:15.681Z,42.54
2023-04-23T11:54:43.192Z,42.41
2023-04-23T11:57:12.861Z,40.69
2023-04-23T11:59:40.418Z,40.08
2023-04-23T12:02:07.829Z,40.24
2023-04-23T12:04:34.982Z,40.68
2023-04-23T12:07:05.905Z,40.31
2023-04-23T12:09:40.565Z,39.80
2023-04-23T12:12:07.721Z,39.67
2023-04-23T12:14:34.759Z,40.42
2023-04-23T12:17:11.335Z,40.95
2023-04-23T12:19:40.820Z,40.97
2023-04-23T12:22:08.796Z,41.54
2023-04-23T12:24:52.636Z,41.32
2023-04-23T12:27:25.080Z,41.43
2023-04-23T12:30:04.204Z,42.12
2023-04-23T12:32:34.626Z,42.05
2023-04-23T12:35:01.688Z,42.11
2023-04-23T12:37:31.595Z,42.41
2023-04-23T12:39:59.852Z,42.57
2023-04-23T12:42:26.885Z,41.90
2023-04-23T12:44:56.195Z,42.46
2023-04-23T12:47:23.668Z,42.34
2023-04-23T12:49:54.097Z,42.94
2023-04-23T12:52:21.809Z,43.30
2023-04-23T12:54:53.133Z,43.21
2023-04-23T12:57:23.586Z,42.72
2023-04-23T12:59:51.256Z,42.97
2023-04-23T13:02:18.481Z,42.38
2023-04-23T13:04:45.911Z,41.46
2023-04-23T13:07:13.587Z,41.56
2023-04-23T13:09:40.773Z,42.30
2023-04-23T13:12:08.138Z,41.84
2023-04-23T13:14:35.121Z,41.28
2023-04-23T13:17:02.037Z,39.21
2023-04-23T13:19:29.482Z,40.72
2023-04-23T13:21:58.093Z,40.25
2023-04-23T13:24:25.164Z,40.15
2023-04-23T13:26:52.192Z,39.13
2023-04-23T13:29:19.301Z,38.95
2023-04-23T13:31:46.567Z,38.21
2023-04-23T13:34:13.614Z,37.77
2023-04-23T13:36:43.553Z,38.07
2023-04-23T13:39:15.177Z,37.59
2023-04-23T13:41:43.657Z,37.72
2023-04-23T13:44:10.915Z,37.68
2023-04-23T13:46:37.881Z,37.88
2023-04-23T13:49:06.033Z,37.89
2023-04-23T13:51:35.843Z,39.50
2023-04-23T13:54:03.792Z,39.45
2023-04-23T13:56:31.943Z,38.85
2023-04-23T13:59:18.132Z,39.21
2023-04-23T14:01:50.180Z,39.40
2023-04-23T14:04:19.023Z,40.21
2023-04-23T14:06:46.213Z,40.36
2023-04-23T14:09:13.205Z,38.38
2023-04-23T14:11:41.816Z,37.94
2023-04-23T14:14:09.065Z,38.94
2023-04-23T14:16:36.232Z,37.99
2023-04-23T14:19:03.452Z,37.94
2023-04-23T14:21:31.100Z,38.09
2023-04-23T14:24:18.232Z,38.55
2023-04-23T14:26:49.208Z,38.58
2023-04-23T14:29:23.245Z,39.07
2023-04-23T14:31:52.303Z,39.94
2023-04-23T14:34:19.238Z,40.17
2023-04-23T14:36:49.532Z,40.77
2023-04-23T14:39:17.346Z,40.92
2023-04-23T14:41:44.981Z,40.80
2023-04-23T14:44:11.983Z,41.48
2023-04-23T14:46:40.218Z,41.08
2023-04-23T14:49:08.306Z,40.62
2023-04-23T14:51:35.268Z,41.20
2023-04-23T14:54:02.319Z,40.94
2023-04-23T14:56:30.539Z,40.98
2023-04-23T14:58:57.652Z,41.66
2023-04-23T15:01:24.671Z,41.77
2023-04-23T15:03:54.343Z,42.27
2023-04-23T15:06:21.587Z,42.32
2023-04-23T15:08:51.306Z,42.38
2023-04-23T15:11:18.308Z,42.73
2023-04-23T15:13:56.281Z,43.13
2023-04-23T15:19:12.131Z,42.80
2023-04-23T15:21:39.457Z,43.26
2023-04-23T15:24:08.105Z,42.74
2023-04-23T15:26:37.688Z,42.99
2023-04-23T15:29:09.257Z,43.30
2023-04-23T15:31:37.310Z,43.09
2023-04-23T15:34:06.424Z,42.93
2023-04-23T15:36:35.331Z,42.75
2023-04-23T15:39:02.374Z,42.94
2023-04-23T15:41:30.945Z,43.56
2023-04-23T15:43:58.596Z,42.84
2023-04-23T15:46:25.584Z,42.79
2023-04-23T15:48:52.488Z,42.97
2023-04-23T15:51:19.770Z,42.76
2023-04-23T15:53:46.759Z,43.02
2023-04-23T15:56:13.807Z,42.95
2023-04-23T15:58:41.139Z,42.82
2023-04-23T16:01:10.115Z,42.93
2023-04-23T16:03:37.352Z,42.35
2023-04-23T16:06:05.351Z,42.10
2023-04-23T16:08:32.973Z,41.98
2023-04-23T16:11:00.001Z,41.78
2023-04-23T16:13:29.161Z,41.98
2023-04-23T16:15:56.218Z,41.75
2023-04-23T16:18:23.213Z,42.26
2023-04-23T16:20:50.254Z,42.27
2023-04-23T16:23:17.364Z,41.91
2023-04-23T16:25:45.078Z,41.97
2023-04-23T16:28:14.096Z,41.95
2023-04-23T16:30:41.119Z,41.71
2023-04-23T16:33:09.601Z,42.08
2023-04-23T16:35:36.869Z,41.87
2023-04-23T16:38:04.108Z,41.81
2023-04-23T16:40:32.225Z,42.27
2023-04-23T16:42:59.714Z,42.18
2023-04-23T16:45:27.554Z,41.88
2023-04-23T16:47:54.793Z,41.64
2023-04-23T16:50:21.714Z,41.80
2023-04-23T16:52:48.694Z,41.85
2023-04-23T16:55:15.793Z,42.36
2023-04-23T16:57:43.258Z,42.39
2023-04-23T17:00:12.915Z,43.04
2023-04-23T17:02:41.689Z,42.76
2023-04-23T17:05:10.056Z,43.04
2023-04-23T17:07:37.244Z,43.38
2023-04-23T17:10:04.555Z,43.22
2023-04-23T17:12:31.653Z,43.14
2023-04-23T17:14:58.642Z,42.90
2023-04-23T17:17:27.619Z,43.24
2023-04-23T17:19:54.581Z,43.27
2023-04-23T17:22:21.554Z,43.20
2023-04-23T17:24:48.944Z,42.94
2023-04-23T17:27:15.856Z,43.34
2023-04-23T17:29:43.424Z,43.48
2023-04-23T17:32:10.900Z,43.12
2023-04-23T17:34:37.872Z,43.17
2023-04-23T17:37:04.996Z,43.48
2023-04-23T17:39:32.228Z,43.40
2023-04-23T17:41:59.483Z,43.68
2023-04-23T17:44:26.421Z,43.66
2023-04-23T17:46:55.296Z,43.63
2023-04-23T17:49:23.454Z,43.75
2023-04-23T17:51:50.596Z,44.05
2023-04-23T17:54:18.062Z,43.94
2023-04-23T17:56:45.132Z,43.87
2023-04-23T17:59:12.971Z,44.19
2023-04-23T18:01:40.034Z,44.04
2023-04-23T18:04:07.155Z,44.57
2023-04-23T18:06:35.872Z,44.65
2023-04-23T18:09:03.209Z,44.45
2023-04-23T18:11:30.199Z,44.56
2023-04-23T18:13:57.600Z,44.81
2023-04-23T18:16:24.929Z,44.96
2023-04-23T18:18:52.724Z,45.21
2023-04-23T18:21:19.982Z,45.33
2023-04-23T18:23:47.741Z,45.50
2023-04-23T18:26:14.869Z,45.85
2023-04-23T18:28:41.870Z,46.25
2023-04-23T18:31:08.964Z,46.27
2023-04-23T18:34:02.610Z,46.58
2023-04-23T18:36:33.594Z,46.65
2023-04-23T18:39:01.071Z,46.41
2023-04-23T18:41:31.292Z,46.81
2023-04-23T18:44:00.338Z,47.01
2023-04-23T18:46:30.880Z,47.31
2023-04-23T18:49:01.480Z,47.45
2023-04-23T18:51:38.432Z,47.68
2023-04-23T18:54:06.161Z,48.02
2023-04-23T18:56:33.378Z,48.21
2023-04-23T18:59:00.382Z,48.24
2023-04-23T19:01:28.646Z,48.41
2023-04-23T19:03:57.561Z,48.40
2023-04-23T19:06:24.755Z,48.65
2023-04-23T19:08:51.946Z,48.73
2023-04-23T19:11:18.867Z,48.87
2023-04-23T19:13:46.552Z,48.69
2023-04-23T19:16:16.488Z,48.98
2023-04-23T19:18:43.735Z,48.76
2023-04-23T19:21:11.523Z,49.14
2023-04-23T19:23:38.662Z,49.31
2023-04-23T19:26:05.969Z,49.09
2023-04-23T19:28:32.889Z,49.30
2023-04-23T19:30:59.843Z,49.43
2023-04-23T19:33:28.799Z,49.57
2023-04-23T19:35:59.602Z,49.55
2023-04-23T19:38:27.384Z,49.91
2023-04-23T19:40:54.454Z,49.96
2023-04-23T19:43:23.156Z,50.03
2023-04-23T19:45:50.778Z,50.23
2023-04-23T19:48:17.658Z,50.28
2023-04-23T19:50:48.379Z,50.20
2023-04-23T19:53:16.012Z,50.42
2023-04-23T19:55:43.971Z,50.60
2023-04-23T19:58:11.064Z,50.56
2023-04-23T20:00:41.661Z,50.72
2023-04-23T20:03:09.266Z,50.73
2023-04-23T20:05:36.500Z,50.89
2023-04-23T20:08:07.255Z,50.88
2023-04-23T20:10:34.719Z,51.26
2023-04-23T20:13:03.848Z,51.43
2023-04-23T20:15:33.203Z,51.72
2023-04-23T20:18:01.054Z,51.92
2023-04-23T20:20:28.057Z,52.41
2023-04-23T20:22:55.674Z,54.80
2023-04-23T20:25:25.503Z,58.71
2023-04-23T20:27:56.003Z,60.81
2023-04-23T20:30:22.978Z,62.48
2023-04-23T20:32:50.006Z,62.84
2023-04-23T20:35:17.371Z,63.53
2023-04-23T20:37:44.415Z,64.51
2023-04-23T20:40:13.029Z,66.12
2023-04-23T20:42:40.049Z,66.90
2023-04-23T20:45:08.397Z,67.36
2023-04-23T20:47:37.116Z,67.06
2023-04-23T20:50:04.705Z,67.61
2023-04-23T20:52:31.744Z,67.60
2023-04-23T20:54:58.647Z,67.84
2023-04-23T20:57:26.593Z,67.79
2023-04-23T20:59:54.934Z,67.79
2023-04-23T21:02:21.986Z,67.80
2023-04-23T21:04:49.565Z,67.98
2023-04-23T21:07:17.825Z,68.16
2023-04-23T21:09:45.865Z,68.20
2023-04-23T21:12:13.284Z,68.74
2023-04-23T21:14:40.251Z,68.82
2023-04-23T21:17:07.599Z,68.83
2023-04-23T21:19:34.657Z,68.95
2023-04-23T21:22:02.141Z,69.05
2023-04-23T21:24:29.302Z,69.26
2023-04-23T21:26:57.685Z,69.37
2023-04-23T21:29:26.958Z,69.57
2023-04-23T21:31:54.025Z,69.74
2023-04-23T21:34:21.831Z,69.52
2023-04-23T21:36:49.921Z,69.92
2023-04-23T21:39:16.943Z,69.93
2023-04-23T21:41:45.091Z,70.07
2023-04-23T21:44:12.132Z,69.94
2023-04-23T21:46:43.476Z,69.86
2023-04-23T21:49:11.605Z,70.21
2023-04-23T21:51:38.750Z,70.27
2023-04-23T21:54:07.692Z,70.27
2023-04-23T21:56:37.910Z,70.37
2023-04-23T21:59:05.251Z,70.54
2023-04-23T22:01:34.291Z,70.42
2023-04-23T22:04:04.870Z,70.14
2023-04-23T22:06:34.560Z,70.19
2023-04-23T22:09:08.612Z,70.05
2023-04-23T22:11:35.712Z,69.98
2023-04-23T22:14:02.769Z,70.15
2023-04-23T22:16:30.494Z,70.23
2023-04-23T22:18:57.758Z,70.19
2023-04-23T22:21:25.330Z,70.08
2023-04-23T22:23:53.764Z,70.18
2023-04-23T22:26:22.489Z,70.00
2023-04-23T22:28:49.499Z,70.02
2023-04-23T22:31:17.587Z,70.15
2023-04-23T22:33:46.706Z,70.14
2023-04-23T22:36:14.693Z,70.00
2023-04-23T22:38:41.885Z,69.93
2023-04-23T22:41:08.985Z,69.95
2023-04-23T22:43:35.983Z,69.82
2023-04-23T22:46:03.253Z,69.58
2023-04-23T22:48:31.145Z,69.53
2023-04-23T22:50:58.158Z,69.60
2023-04-23T22:53:25.590Z,69.51
2023-04-23T22:55:53.081Z,69.54
2023-04-23T22:58:21.145Z,69.32
2023-04-23T23:00:48.132Z,69.73
2023-04-23T23:03:16.850Z,69.72
2023-04-23T23:05:44.332Z,69.72
2023-04-23T23:08:12.333Z,69.87
2023-04-23T23:10:39.505Z,69.87
2023-04-23T23:13:07.700Z,69.87
2023-04-23T23:15:35.692Z,70.02
2023-04-23T23:18:03.305Z,69.94
2023-04-23T23:20:30.499Z,69.78
2023-04-23T23:22:58.012Z,69.72
2023-04-23T23:25:25.216Z,69.74
2023-04-23T23:27:56.838Z,69.82
2023-04-23T23:30:24.256Z,69.81
2023-04-23T23:32:51.292Z,69.57
2023-04-23T23:35:18.416Z,69.67
2023-04-23T23:37:45.965Z,69.56
2023-04-23T23:40:13.026Z,69.97
2023-04-23T23:42:40.081Z,69.58
2023-04-23T23:45:07.890Z,69.64
2023-04-23T23:47:37.412Z,69.78
2023-04-23T23:50:06.471Z,69.75
2023-04-23T23:52:33.749Z,69.79
2023-04-23T23:55:01.824Z,69.92
2023-04-23T23:57:32.542Z,69.82
